Time;durP1;ratioP1;P1;durP2;ratioP2;P2;SDS_P1;SDS_P2;PMS_P1;PMS_P2;Temp;Humidity;BMP_temperature;BMP_pressure;BME280_temperature;BME280_humidity;BME280_pressure;Samples;Min_cycle;Max_cycle;Signal;HPM_P1;HPM_P2
2021/04/05 00:00:30;;;;;;;1.23;0.93;;;;;;;;;;5046340;28;20241;-61
2021/04/05 00:02:57;;;;;;;3.30;2.60;;;;;;;;;;5039562;28;20303;-60
2021/04/05 00:05:27;;;;;;;0.43;0.43;;;;;;;;;;5057862;28;20250;-61
2021/04/05 00:07:54;;;;;;;0.00;0.00;;;;;;;;;;5039606;28;20187;-61
2021/04/05 00:10:25;;;;;;;0.20;0.20;;;;;;;;;;5049098;28;20193;-61
2021/04/05 00:12:54;;;;;;;4.80;0.67;;;;;;;;;;5058404;28;21026;-61
2021/04/05 00:15:21;;;;;;;0.07;0.07;;;;;;;;;;5059451;28;20299;-61
2021/04/05 00:17:50;;;;;;;1.07;1.07;;;;;;;;;;5059081;28;20210;-61
2021/04/05 00:20:21;;;;;;;0.07;0.07;;;;;;;;;;5059150;28;20347;-61
2021/04/05 00:22:47;;;;;;;0.23;0.23;;;;;;;;;;5047362;28;20337;-63
2021/04/05 00:25:14;;;;;;;0.27;0.27;;;;;;;;;;5047788;28;20179;-61
2021/04/05 00:27:43;;;;;;;0.00;0.00;;;;;;;;;;5041392;28;20294;-62
2021/04/05 00:30:18;;;;;;;0.00;0.00;;;;;;;;;;5049328;28;20807;-61
2021/04/05 00:32:50;;;;;;;0.87;0.87;;;;;;;;;;5052879;28;20268;-61
2021/04/05 00:35:22;;;;;;;0.00;0.00;;;;;;;;;;5053014;28;20196;-61
2021/04/05 00:37:50;;;;;;;0.93;0.40;;;;;;;;;;5050693;28;20178;-62
2021/04/05 00:40:19;;;;;;;0.30;0.30;;;;;;;;;;5052512;28;20983;-61
2021/04/05 00:42:46;;;;;;;0.90;0.43;;;;;;;;;;5045059;28;20214;-61
2021/04/05 00:45:14;;;;;;;0.63;0.63;;;;;;;;;;5048152;28;20590;-61
2021/04/05 00:47:45;;;;;;;0.43;0.43;;;;;;;;;;5052824;28;20270;-61
2021/04/05 00:50:16;;;;;;;0.20;0.20;;;;;;;;;;5055432;28;20197;-61
2021/04/05 00:52:43;;;;;;;0.83;0.83;;;;;;;;;;5051478;28;20849;-60
2021/04/05 00:55:12;;;;;;;1.70;1.60;;;;;;;;;;5050740;28;20177;-62
2021/04/05 00:57:41;;;;;;;0.40;0.23;;;;;;;;;;5058447;28;20185;-62
2021/04/05 01:00:16;;;;;;;0.37;0.37;;;;;;;;;;5053847;28;20260;-61
2021/04/05 01:02:43;;;;;;;6.97;0.77;;;;;;;;;;5059911;28;20212;-60
2021/04/05 01:05:14;;;;;;;0.30;0.30;;;;;;;;;;5048100;28;20182;-61
2021/04/05 01:07:45;;;;;;;1.13;0.87;;;;;;;;;;5058333;28;20269;-61
2021/04/05 01:10:15;;;;;;;0.17;0.13;;;;;;;;;;5056192;28;20251;-61
2021/04/05 01:12:41;;;;;;;0.00;0.00;;;;;;;;;;5049322;28;20746;-61
2021/04/05 01:15:11;;;;;;;1.27;0.87;;;;;;;;;;5053173;28;20246;-60
2021/04/05 01:17:39;;;;;;;0.10;0.10;;;;;;;;;;5043578;28;21325;-61
2021/04/05 01:20:11;;;;;;;1.60;1.50;;;;;;;;;;5050377;28;20189;-60
2021/04/05 01:22:38;;;;;;;0.10;0.10;;;;;;;;;;5051409;28;21822;-61
2021/04/05 01:25:06;;;;;;;0.30;0.30;;;;;;;;;;5045523;28;20193;-61
2021/04/05 01:27:37;;;;;;;0.10;0.10;;;;;;;;;;5048965;28;20181;-61
2021/04/05 01:30:27;;;;;;;0.10;0.10;;;;;;;;;;5048855;28;20210;-61
2021/04/05 01:33:14;;;;;;;0.50;0.50;;;;;;;;;;5047682;28;20285;-61
2021/04/05 01:35:44;;;;;;;1.10;1.10;;;;;;;;;;5048190;28;21655;-61
2021/04/05 01:38:13;;;;;;;0.30;0.30;;;;;;;;;;5045574;28;20194;-61
2021/04/05 01:40:42;;;;;;;0.57;0.50;;;;;;;;;;5051066;28;20193;-61
2021/04/05 01:43:09;;;;;;;0.93;0.93;;;;;;;;;;5043590;28;20207;-60
2021/04/05 01:45:36;;;;;;;0.30;0.30;;;;;;;;;;5042964;28;20225;-60
2021/04/05 01:48:04;;;;;;;1.53;1.43;;;;;;;;;;5037553;28;20195;-61
2021/04/05 01:50:32;;;;;;;0.23;0.23;;;;;;;;;;5051024;28;20209;-60
2021/04/05 01:53:06;;;;;;;0.13;0.13;;;;;;;;;;5055207;28;20186;-61
2021/04/05 01:55:35;;;;;;;0.10;0.10;;;;;;;;;;5046505;28;20894;-61
2021/04/05 01:58:02;;;;;;;0.07;0.07;;;;;;;;;;5043794;28;20995;-61
2021/04/05 02:00:30;;;;;;;0.23;0.23;;;;;;;;;;5044007;28;20186;-61
2021/04/05 02:03:02;;;;;;;0.10;0.10;;;;;;;;;;5045394;28;21070;-60
2021/04/05 02:05:32;;;;;;;0.80;0.80;;;;;;;;;;5053561;28;20492;-61
2021/04/05 02:08:00;;;;;;;3.13;2.93;;;;;;;;;;5050141;28;20185;-61
2021/04/05 02:10:27;;;;;;;0.20;0.20;;;;;;;;;;5053077;28;20956;-61
2021/04/05 02:12:54;;;;;;;0.83;0.83;;;;;;;;;;5046757;28;20178;-60
2021/04/05 02:15:24;;;;;;;0.10;0.10;;;;;;;;;;5043394;28;20197;-60
2021/04/05 02:17:51;;;;;;;0.33;0.33;;;;;;;;;;5050145;28;20950;-61
2021/04/05 02:20:20;;;;;;;0.93;0.93;;;;;;;;;;5047768;28;20210;-61
2021/04/05 02:22:51;;;;;;;1.00;1.00;;;;;;;;;;5043316;28;20924;-60
2021/04/05 02:25:19;;;;;;;0.03;0.03;;;;;;;;;;5045349;28;20178;-60
2021/04/05 02:27:52;;;;;;;3.87;3.40;;;;;;;;;;5052894;28;20627;-61
2021/04/05 02:30:28;;;;;;;0.10;0.10;;;;;;;;;;5053006;28;20277;-60
2021/04/05 02:32:54;;;;;;;0.10;0.10;;;;;;;;;;5046514;28;20766;-60
2021/04/05 02:35:22;;;;;;;0.00;0.00;;;;;;;;;;5051565;28;20186;-61
2021/04/05 02:37:49;;;;;;;0.10;0.10;;;;;;;;;;5052987;28;20190;-61
2021/04/05 02:40:20;;;;;;;0.00;0.00;;;;;;;;;;5047806;28;20643;-61
2021/04/05 02:42:47;;;;;;;0.00;0.00;;;;;;;;;;5060202;28;20217;-61
2021/04/05 02:45:18;;;;;;;0.10;0.10;;;;;;;;;;5049705;28;21130;-61
2021/04/05 02:47:45;;;;;;;0.20;0.20;;;;;;;;;;5058744;28;20195;-61
2021/04/05 02:50:12;;;;;;;0.10;0.10;;;;;;;;;;5051655;28;20174;-61
2021/04/05 02:52:40;;;;;;;0.10;0.10;;;;;;;;;;5054214;28;20182;-61
2021/04/05 02:55:10;;;;;;;0.10;0.10;;;;;;;;;;5047859;28;20179;-61
2021/04/05 02:57:37;;;;;;;0.10;0.10;;;;;;;;;;5044306;28;20202;-61
2021/04/05 03:00:10;;;;;;;0.10;0.10;;;;;;;;;;5047073;28;20186;-61
2021/04/05 03:02:37;;;;;;;0.10;0.10;;;;;;;;;;5046614;28;20358;-61
2021/04/05 03:05:06;;;;;;;0.40;0.40;;;;;;;;;;5054829;28;20237;-62
2021/04/05 03:07:32;;;;;;;0.10;0.10;;;;;;;;;;5052457;28;20194;-61
2021/04/05 03:10:00;;;;;;;0.87;0.73;;;;;;;;;;5055275;28;20197;-61
2021/04/05 03:12:28;;;;;;;2.00;1.50;;;;;;;;;;5044461;28;20213;-62
2021/04/05 03:14:55;;;;;;;0.00;0.00;;;;;;;;;;5048947;28;20199;-61
2021/04/05 03:17:22;;;;;;;0.13;0.13;;;;;;;;;;5054275;28;20190;-61
2021/04/05 03:19:49;;;;;;;0.20;0.20;;;;;;;;;;5053078;28;20191;-62
2021/04/05 03:22:18;;;;;;;0.77;0.63;;;;;;;;;;5045232;28;20186;-61
2021/04/05 03:24:44;;;;;;;0.60;0.60;;;;;;;;;;5050791;28;20197;-61
2021/04/05 03:27:11;;;;;;;0.10;0.10;;;;;;;;;;5053071;28;20189;-62
2021/04/05 03:29:39;;;;;;;0.50;0.50;;;;;;;;;;5044837;28;20300;-61
2021/04/05 03:32:06;;;;;;;0.40;0.30;;;;;;;;;;5051127;28;20189;-61
2021/04/05 03:34:35;;;;;;;8.10;7.43;;;;;;;;;;5055002;28;20802;-60
2021/04/05 03:37:05;;;;;;;0.03;0.03;;;;;;;;;;5051149;28;20618;-62
2021/04/05 03:39:32;;;;;;;0.17;0.17;;;;;;;;;;5050905;28;20197;-61
2021/04/05 03:42:07;;;;;;;0.00;0.00;;;;;;;;;;5051103;28;20205;-61
2021/04/05 03:44:37;;;;;;;0.00;0.00;;;;;;;;;;5056328;28;20196;-61
2021/04/05 03:47:08;;;;;;;0.00;0.00;;;;;;;;;;5054435;28;20191;-61
2021/04/05 03:49:37;;;;;;;5.63;5.10;;;;;;;;;;5062286;28;20193;-61
2021/04/05 03:52:09;;;;;;;0.10;0.10;;;;;;;;;;5054837;28;20330;-61
2021/04/05 03:54:52;;;;;;;0.10;0.10;;;;;;;;;;5050607;28;20362;-61
2021/04/05 03:57:23;;;;;;;0.00;0.00;;;;;;;;;;5057127;28;20696;-62
2021/04/05 03:59:54;;;;;;;0.93;0.73;;;;;;;;;;5057241;28;20217;-61
2021/04/05 04:02:22;;;;;;;0.10;0.10;;;;;;;;;;5052071;28;20197;-61
2021/04/05 04:05:05;;;;;;;1.27;1.17;;;;;;;;;;5058029;28;20921;-61
2021/04/05 04:10:03;;;;;;;1.27;1.17;;;;;;;;;;5056119;28;20903;-61
2021/04/05 04:12:31;;;;;;;0.10;0.10;;;;;;;;;;5059363;28;20220;-61
2021/04/05 04:14:59;;;;;;;0.97;0.67;;;;;;;;;;5053671;28;20550;-62
2021/04/05 04:17:26;;;;;;;3.37;1.03;;;;;;;;;;5056170;28;20224;-61
2021/04/05 04:19:54;;;;;;;0.47;0.47;;;;;;;;;;5055632;28;20185;-61
2021/04/05 04:22:22;;;;;;;2.83;1.23;;;;;;;;;;5054132;28;20229;-61
2021/04/05 04:24:48;;;;;;;0.00;0.00;;;;;;;;;;5058276;28;20531;-61
2021/04/05 04:27:17;;;;;;;0.00;0.00;;;;;;;;;;5057222;28;20940;-61
2021/04/05 04:29:52;;;;;;;0.07;0.07;;;;;;;;;;5051862;28;20225;-61
2021/04/05 04:32:19;;;;;;;0.07;0.07;;;;;;;;;;5052443;28;20238;-61
2021/04/05 04:34:45;;;;;;;1.47;1.47;;;;;;;;;;5051494;28;20213;-61
2021/04/05 04:37:13;;;;;;;0.00;0.00;;;;;;;;;;5053905;28;20180;-61
2021/04/05 04:39:40;;;;;;;0.50;0.50;;;;;;;;;;5053623;28;20181;-61
2021/04/05 04:42:07;;;;;;;0.00;0.00;;;;;;;;;;5055482;28;20188;-61
2021/04/05 04:44:34;;;;;;;0.00;0.00;;;;;;;;;;5053727;28;20201;-61
2021/04/05 04:47:01;;;;;;;0.00;0.00;;;;;;;;;;5056194;28;20280;-61
2021/04/05 04:49:28;;;;;;;0.10;0.10;;;;;;;;;;5056727;28;20667;-61
2021/04/05 04:51:57;;;;;;;0.00;0.00;;;;;;;;;;5051007;28;20189;-61
2021/04/05 04:54:26;;;;;;;0.00;0.00;;;;;;;;;;5056008;28;20239;-61
2021/04/05 04:56:53;;;;;;;0.10;0.10;;;;;;;;;;5053087;28;20181;-61
2021/04/05 04:59:24;;;;;;;0.10;0.10;;;;;;;;;;5051262;28;20998;-61
2021/04/05 05:01:50;;;;;;;0.40;0.30;;;;;;;;;;5052412;28;20183;-62
2021/04/05 05:04:24;;;;;;;5.93;1.60;;;;;;;;;;5052086;28;20206;-61
2021/04/05 05:06:53;;;;;;;0.10;0.10;;;;;;;;;;5052884;28;20189;-61
2021/04/05 05:09:20;;;;;;;0.00;0.00;;;;;;;;;;5053041;28;20193;-61
2021/04/05 05:11:47;;;;;;;0.03;0.03;;;;;;;;;;5051849;28;20396;-61
2021/04/05 05:14:17;;;;;;;0.50;0.50;;;;;;;;;;5051535;28;20235;-60
2021/04/05 05:16:45;;;;;;;1.70;1.60;;;;;;;;;;5048852;28;20551;-61
2021/04/05 05:19:16;;;;;;;0.03;0.03;;;;;;;;;;5049361;28;20311;-61
2021/04/05 05:21:45;;;;;;;0.17;0.17;;;;;;;;;;5050309;28;20909;-61
2021/04/05 05:24:16;;;;;;;0.10;0.10;;;;;;;;;;5051130;28;20341;-61
2021/04/05 05:26:43;;;;;;;6.53;1.30;;;;;;;;;;5053689;28;20223;-60
2021/04/05 05:29:13;;;;;;;1.23;1.13;;;;;;;;;;5053046;28;20518;-60
2021/04/05 05:31:43;;;;;;;0.27;0.27;;;;;;;;;;5050873;28;20190;-61
2021/04/05 05:34:18;;;;;;;0.10;0.10;;;;;;;;;;5048823;28;20239;-60
2021/04/05 05:36:45;;;;;;;0.10;0.10;;;;;;;;;;5047852;28;20239;-61
2021/04/05 05:39:13;;;;;;;0.20;0.20;;;;;;;;;;5051092;28;20693;-61
2021/04/05 05:41:39;;;;;;;1.00;0.83;;;;;;;;;;5049074;28;20259;-60
2021/04/05 05:44:09;;;;;;;0.77;0.63;;;;;;;;;;5047490;28;20209;-60
2021/04/05 05:46:38;;;;;;;0.40;0.40;;;;;;;;;;5049724;28;20924;-60
2021/04/05 05:49:13;;;;;;;0.20;0.20;;;;;;;;;;5050149;28;20190;-60
2021/04/05 05:51:43;;;;;;;0.20;0.20;;;;;;;;;;5045006;28;20189;-60
2021/04/05 05:54:28;;;;;;;0.10;0.10;;;;;;;;;;5050331;28;20193;-60
2021/04/05 05:57:03;;;;;;;0.00;0.00;;;;;;;;;;5047377;28;20243;-60
2021/04/05 05:59:48;;;;;;;0.10;0.10;;;;;;;;;;5056996;28;20217;-61
2021/04/05 06:02:20;;;;;;;0.00;0.00;;;;;;;;;;5049340;28;20935;-61
2021/04/05 06:04:53;;;;;;;0.00;0.00;;;;;;;;;;5052076;28;20217;-61
2021/04/05 06:07:29;;;;;;;0.00;0.00;;;;;;;;;;5049606;28;20208;-61
2021/04/05 06:10:05;;;;;;;0.10;0.10;;;;;;;;;;5053952;28;21006;-61
2021/04/05 06:13:01;;;;;;;0.00;0.00;;;;;;;;;;5054523;28;20190;-61
2021/04/05 06:15:32;;;;;;;0.10;0.10;;;;;;;;;;5047745;28;20257;-61
2021/04/05 06:17:58;;;;;;;0.00;0.00;;;;;;;;;;5057448;28;20185;-61
2021/04/05 06:20:31;;;;;;;0.10;0.10;;;;;;;;;;5054127;28;20185;-62
2021/04/05 06:22:57;;;;;;;0.20;0.20;;;;;;;;;;5054998;28;20233;-61
2021/04/05 06:25:37;;;;;;;0.10;0.10;;;;;;;;;;5051001;28;20664;-61
2021/04/05 06:28:13;;;;;;;0.07;0.07;;;;;;;;;;5056641;28;20233;-62
2021/04/05 06:30:59;;;;;;;0.10;0.10;;;;;;;;;;5052563;28;20194;-61
2021/04/05 06:33:36;;;;;;;0.10;0.10;;;;;;;;;;5053208;28;20247;-62
2021/04/05 06:36:15;;;;;;;6.03;0.63;;;;;;;;;;5053489;28;21081;-61
2021/04/05 06:38:48;;;;;;;0.00;0.00;;;;;;;;;;5051263;28;20271;-61
2021/04/05 06:41:35;;;;;;;0.00;0.00;;;;;;;;;;5049554;28;20271;-61
2021/04/05 13:22:01;;;;;;;0.00;0.00;;;;;;;;;;5067092;28;20640;-61
2021/04/05 13:24:35;;;;;;;0.00;0.00;;;;;;;;;;5070204;28;20184;-60
2021/04/05 13:27:02;;;;;;;0.00;0.00;;;;;;;;;;5067794;28;20296;-61
2021/04/05 13:29:30;;;;;;;0.07;0.00;;;;;;;;;;5068409;28;20174;-61
2021/04/05 13:32:01;;;;;;;2.83;0.37;;;;;;;;;;5070315;28;20186;-61
2021/04/05 13:34:35;;;;;;;0.00;0.00;;;;;;;;;;5069550;28;20179;-61
2021/04/05 13:37:13;;;;;;;0.63;0.10;;;;;;;;;;5069749;28;20271;-61
2021/04/05 13:39:41;;;;;;;0.40;0.23;;;;;;;;;;5068914;28;20182;-61
2021/04/05 13:42:19;;;;;;;1.07;1.00;;;;;;;;;;5073686;28;20178;-61
2021/04/05 13:44:48;;;;;;;0.77;0.20;;;;;;;;;;5063158;28;20354;-62
2021/04/05 13:47:15;;;;;;;0.00;0.00;;;;;;;;;;5065892;28;20637;-60
2021/04/05 13:49:48;;;;;;;0.90;0.53;;;;;;;;;;5067238;28;20285;-60
2021/04/05 13:52:19;;;;;;;0.10;0.10;;;;;;;;;;5061805;28;20204;-61
2021/04/05 13:54:50;;;;;;;0.27;0.20;;;;;;;;;;5069401;28;20817;-61
2021/04/05 13:57:17;;;;;;;0.00;0.00;;;;;;;;;;5067225;28;20176;-61
2021/04/05 13:59:58;;;;;;;0.07;0.07;;;;;;;;;;5066630;28;20261;-60
2021/04/05 14:02:25;;;;;;;0.30;0.30;;;;;;;;;;5068763;28;20190;-55
2021/04/05 14:04:52;;;;;;;0.00;0.00;;;;;;;;;;5068068;28;20243;-56
2021/04/05 14:07:20;;;;;;;0.43;0.43;;;;;;;;;;5068611;28;20179;-56
2021/04/05 14:09:47;;;;;;;0.00;0.00;;;;;;;;;;5068741;28;20202;-55
2021/04/05 14:12:16;;;;;;;0.00;0.00;;;;;;;;;;5069997;28;20186;-56
2021/04/05 14:14:42;;;;;;;0.47;0.27;;;;;;;;;;5068291;28;20267;-55
2021/04/05 14:17:27;;;;;;;0.43;0.20;;;;;;;;;;5070374;28;20209;-54
2021/04/05 14:19:59;;;;;;;0.10;0.10;;;;;;;;;;5068456;28;20354;-57
2021/04/05 14:22:32;;;;;;;21.77;0.70;;;;;;;;;;5071618;28;21014;-55
2021/04/05 14:25:02;;;;;;;0.23;0.23;;;;;;;;;;5067046;28;20187;-55
2021/04/05 14:27:49;;;;;;;2.20;0.40;;;;;;;;;;5069794;28;20185;-53
2021/04/05 14:30:18;;;;;;;0.63;0.57;;;;;;;;;;5070104;28;20182;-55
2021/04/05 14:32:58;;;;;;;2.10;1.07;;;;;;;;;;5054228;28;21122;-57
2021/04/05 14:35:27;;;;;;;0.00;0.00;;;;;;;;;;5050323;28;20950;-52
2021/04/05 14:37:56;;;;;;;0.00;0.00;;;;;;;;;;5053836;28;20191;-57
2021/04/05 14:40:25;;;;;;;0.57;0.57;;;;;;;;;;5052211;28;21053;-57
2021/04/05 14:42:58;;;;;;;0.00;0.00;;;;;;;;;;5055264;28;20191;-56
2021/04/05 14:45:25;;;;;;;1.17;0.43;;;;;;;;;;5052600;28;20191;-55
2021/04/05 14:47:56;;;;;;;0.40;0.30;;;;;;;;;;5047543;28;20274;-56
2021/04/05 14:50:34;;;;;;;2.83;0.40;;;;;;;;;;5053023;28;20206;-54
2021/04/05 14:53:05;;;;;;;0.70;0.70;;;;;;;;;;5052966;28;20721;-56
2021/04/05 14:55:35;;;;;;;0.00;0.00;;;;;;;;;;5049770;28;20202;-55
2021/04/05 14:58:04;;;;;;;27.17;1.70;;;;;;;;;;5053469;28;20263;-56
2021/04/05 15:00:34;;;;;;;1.27;0.60;;;;;;;;;;5051757;28;20330;-60
2021/04/05 15:03:15;;;;;;;0.33;0.10;;;;;;;;;;5054511;28;20197;-54
2021/04/05 15:05:46;;;;;;;5.20;3.73;;;;;;;;;;5050112;28;20183;-58
2021/04/05 15:08:16;;;;;;;0.00;0.00;;;;;;;;;;5050899;28;20994;-56
2021/04/05 15:10:45;;;;;;;1.07;0.23;;;;;;;;;;5052638;28;20185;-58
2021/04/05 15:13:14;;;;;;;0.10;0.10;;;;;;;;;;5052977;28;20195;-55
2021/04/05 15:15:41;;;;;;;0.30;0.17;;;;;;;;;;5052266;28;20202;-53
2021/04/05 15:18:08;;;;;;;0.47;0.47;;;;;;;;;;5053275;28;20188;-54
2021/04/05 15:20:44;;;;;;;0.77;0.43;;;;;;;;;;5052545;28;20380;-57
2021/04/05 15:23:12;;;;;;;0.60;0.10;;;;;;;;;;5052285;28;20190;-57
2021/04/05 15:25:41;;;;;;;0.40;0.20;;;;;;;;;;5052773;28;20189;-57
2021/04/05 15:28:09;;;;;;;0.27;0.10;;;;;;;;;;5049512;28;21077;-55
2021/04/05 15:30:46;;;;;;;0.47;0.23;;;;;;;;;;5049997;28;20187;-55
2021/04/05 15:33:13;;;;;;;0.63;0.13;;;;;;;;;;5052115;28;20187;-59
2021/04/05 15:35:44;;;;;;;0.83;0.30;;;;;;;;;;5049242;28;20188;-59
2021/04/05 15:38:11;;;;;;;6.90;0.63;;;;;;;;;;5054423;28;20195;-59
2021/04/05 15:40:39;;;;;;;0.10;0.10;;;;;;;;;;5054195;28;20457;-59
2021/04/05 15:43:15;;;;;;;4.80;0.90;;;;;;;;;;5052210;28;20184;-59
2021/04/05 15:45:54;;;;;;;0.10;0.10;;;;;;;;;;5043429;28;20243;-59
2021/04/05 15:48:26;;;;;;;29.53;1.40;;;;;;;;;;5050024;28;20192;-59
2021/04/05 15:51:06;;;;;;;0.00;0.00;;;;;;;;;;5049585;28;20198;-58
2021/04/05 15:53:33;;;;;;;0.00;0.00;;;;;;;;;;5053306;28;20190;-59
2021/04/05 15:56:02;;;;;;;1.60;0.47;;;;;;;;;;5054338;28;20192;-60
2021/04/05 15:58:32;;;;;;;0.30;0.13;;;;;;;;;;5053131;28;20180;-60
2021/04/05 16:01:03;;;;;;;0.40;0.10;;;;;;;;;;5053494;28;20237;-59
2021/04/05 16:03:30;;;;;;;0.20;0.10;;;;;;;;;;5051273;28;20369;-59
2021/04/05 16:06:08;;;;;;;0.00;0.00;;;;;;;;;;5052301;28;20198;-59
2021/04/05 16:08:44;;;;;;;0.00;0.00;;;;;;;;;;5049864;28;20191;-60
2021/04/05 16:11:10;;;;;;;0.10;0.10;;;;;;;;;;5051853;28;20891;-60
2021/04/05 16:13:50;;;;;;;0.33;0.33;;;;;;;;;;5051896;28;20212;-60
2021/04/05 16:16:18;;;;;;;0.50;0.50;;;;;;;;;;5051303;28;20844;-60
2021/04/05 16:18:52;;;;;;;0.00;0.00;;;;;;;;;;5050292;28;20303;-60
2021/04/05 16:21:43;;;;;;;0.13;0.13;;;;;;;;;;5050998;28;20987;-60
2021/04/05 16:24:14;;;;;;;0.00;0.00;;;;;;;;;;5054641;28;20202;-60
2021/04/05 16:26:41;;;;;;;2.07;0.70;;;;;;;;;;5049710;28;20180;-60
2021/04/05 16:29:07;;;;;;;0.10;0.10;;;;;;;;;;5051171;28;20182;-59
2021/04/05 16:31:35;;;;;;;0.00;0.00;;;;;;;;;;5052702;28;20202;-59
2021/04/05 16:34:07;;;;;;;0.00;0.00;;;;;;;;;;5052626;28;20188;-60
2021/04/05 16:36:35;;;;;;;0.00;0.00;;;;;;;;;;5052513;28;20961;-60
2021/04/05 16:39:08;;;;;;;5.53;0.50;;;;;;;;;;5051889;28;20195;-60
2021/04/05 16:41:41;;;;;;;1.50;0.67;;;;;;;;;;5052195;28;20301;-59
2021/04/05 16:44:11;;;;;;;7.30;1.70;;;;;;;;;;5050498;28;20231;-60
2021/04/05 16:46:42;;;;;;;0.93;0.27;;;;;;;;;;5049424;28;20193;-60
2021/04/05 16:49:13;;;;;;;0.40;0.17;;;;;;;;;;5050143;28;20190;-59
2021/04/05 16:51:58;;;;;;;0.00;0.00;;;;;;;;;;5052957;28;20881;-59
2021/04/05 16:54:36;;;;;;;0.00;0.00;;;;;;;;;;5050578;28;20194;-59
2021/04/05 16:57:04;;;;;;;0.00;0.00;;;;;;;;;;5051955;28;20185;-59
2021/04/05 16:59:35;;;;;;;0.00;0.00;;;;;;;;;;5049151;28;20279;-59
2021/04/05 17:02:08;;;;;;;0.00;0.00;;;;;;;;;;5054576;28;20224;-59
2021/04/05 17:04:37;;;;;;;2.47;0.70;;;;;;;;;;5051652;28;20188;-59
2021/04/05 17:07:06;;;;;;;0.37;0.23;;;;;;;;;;5049379;28;20628;-59
2021/04/05 17:09:33;;;;;;;0.00;0.00;;;;;;;;;;5047823;28;20674;-59
2021/04/05 17:12:05;;;;;;;0.00;0.00;;;;;;;;;;5051788;28;20183;-59
2021/04/05 17:14:38;;;;;;;0.17;0.17;;;;;;;;;;5050225;28;20491;-59
2021/04/05 17:17:08;;;;;;;6.43;0.60;;;;;;;;;;5050498;28;20415;-59
2021/04/05 17:19:45;;;;;;;1.10;1.10;;;;;;;;;;5051114;28;20253;-59
2021/04/05 17:22:14;;;;;;;0.30;0.30;;;;;;;;;;5052495;28;20611;-60
2021/04/05 17:24:45;;;;;;;0.20;0.20;;;;;;;;;;5049613;28;20186;-59
2021/04/05 17:27:15;;;;;;;0.00;0.00;;;;;;;;;;5051133;28;20183;-57
2021/04/05 17:29:44;;;;;;;0.30;0.27;;;;;;;;;;5053722;28;20277;-55
2021/04/05 17:32:15;;;;;;;3.03;0.10;;;;;;;;;;5050253;28;20280;-56
2021/04/05 17:35:02;;;;;;;0.33;0.30;;;;;;;;;;5049376;28;20191;-57
2021/04/05 17:37:33;;;;;;;6.80;0.93;;;;;;;;;;5052244;28;20184;-57
2021/04/05 17:40:00;;;;;;;0.10;0.10;;;;;;;;;;5048889;28;20562;-55
2021/04/05 17:42:31;;;;;;;0.37;0.37;;;;;;;;;;5050330;28;20277;-57
2021/04/05 17:45:00;;;;;;;0.83;0.37;;;;;;;;;;5049641;28;20275;-57
2021/04/05 17:47:35;;;;;;;0.00;0.00;;;;;;;;;;5051920;28;20317;-60
2021/04/05 17:50:21;;;;;;;0.00;0.00;;;;;;;;;;5050101;28;20226;-59
2021/04/05 17:52:50;;;;;;;2.33;1.20;;;;;;;;;;5046952;28;20196;-60
2021/04/05 17:55:18;;;;;;;0.00;0.00;;;;;;;;;;5047535;28;20193;-60
2021/04/05 17:57:55;;;;;;;0.07;0.07;;;;;;;;;;5049303;28;20202;-61
2021/04/05 18:00:36;;;;;;;1.60;0.50;;;;;;;;;;5049721;28;20219;-60
2021/04/05 18:03:06;;;;;;;0.40;0.10;;;;;;;;;;5047127;28;20186;-60
2021/04/05 18:05:38;;;;;;;1.00;1.00;;;;;;;;;;5050264;28;20193;-60
2021/04/05 18:08:11;;;;;;;3.57;0.60;;;;;;;;;;5051512;28;20225;-60
2021/04/05 18:10:59;;;;;;;0.23;0.20;;;;;;;;;;5052888;28;20213;-58
2021/04/05 18:13:32;;;;;;;0.43;0.43;;;;;;;;;;5052837;28;20285;-58
2021/04/05 18:16:01;;;;;;;0.10;0.10;;;;;;;;;;5053546;28;20266;-57
2021/04/05 18:18:34;;;;;;;0.00;0.00;;;;;;;;;;5052266;28;20183;-58
2021/04/05 18:21:01;;;;;;;0.00;0.00;;;;;;;;;;5052244;28;20223;-55
2021/04/05 18:23:27;;;;;;;0.00;0.00;;;;;;;;;;5051968;28;20184;-58
2021/04/05 18:26:03;;;;;;;0.00;0.00;;;;;;;;;;5052421;28;20304;-58
2021/04/05 18:28:42;;;;;;;0.60;0.40;;;;;;;;;;5056092;28;20192;-58
2021/04/05 18:31:13;;;;;;;1.50;1.40;;;;;;;;;;5049520;28;20210;-58
2021/04/05 18:33:44;;;;;;;0.33;0.27;;;;;;;;;;5051946;28;20260;-58
2021/04/05 18:36:39;;;;;;;12.10;1.13;;;;;;;;;;5052990;28;20196;-58
2021/04/05 18:39:07;;;;;;;3.40;1.43;;;;;;;;;;5050856;28;20222;-58
2021/04/05 18:41:34;;;;;;;3.50;2.77;;;;;;;;;;5049415;28;20225;-55
2021/04/05 18:44:03;;;;;;;0.10;0.10;;;;;;;;;;5054151;28;20190;-57
2021/04/05 18:46:32;;;;;;;0.10;0.10;;;;;;;;;;5048353;28;20235;-58
2021/04/05 18:48:58;;;;;;;0.10;0.07;;;;;;;;;;5053761;28;20182;-56
2021/04/05 18:51:53;;;;;;;0.10;0.10;;;;;;;;;;5052058;28;20226;-58
2021/04/05 18:54:28;;;;;;;0.60;0.37;;;;;;;;;;5046440;28;20702;-58
2021/04/05 18:56:59;;;;;;;6.97;2.43;;;;;;;;;;5054398;28;20190;-57
2021/04/05 18:59:29;;;;;;;0.77;0.77;;;;;;;;;;5054127;28;20990;-58
2021/04/05 19:01:57;;;;;;;0.00;0.00;;;;;;;;;;5051401;28;20214;-54
2021/04/05 19:04:29;;;;;;;0.30;0.30;;;;;;;;;;5050389;28;20210;-58
2021/04/05 19:06:59;;;;;;;0.00;0.00;;;;;;;;;;5052489;28;20711;-59
2021/04/05 19:09:26;;;;;;;0.40;0.40;;;;;;;;;;5052906;28;20646;-57
2021/04/05 19:11:53;;;;;;;0.00;0.00;;;;;;;;;;5055210;28;20377;-57
2021/04/05 19:14:19;;;;;;;0.13;0.13;;;;;;;;;;5052753;28;20229;-58
2021/04/05 19:17:12;;;;;;;0.00;0.00;;;;;;;;;;5056253;28;20251;-53
2021/04/05 19:19:39;;;;;;;0.00;0.00;;;;;;;;;;5030683;28;20918;-57
2021/04/05 19:22:21;;;;;;;0.27;0.27;;;;;;;;;;5053434;28;20230;-56
2021/04/05 19:24:47;;;;;;;1.60;0.23;;;;;;;;;;5049283;28;20365;-55
2021/04/05 19:27:38;;;;;;;0.10;0.00;;;;;;;;;;5055861;28;20190;-56
2021/04/05 19:30:18;;;;;;;0.00;0.00;;;;;;;;;;5053753;28;20283;-58
2021/04/05 19:33:03;;;;;;;0.20;0.10;;;;;;;;;;5054019;28;20691;-57
2021/04/05 19:35:33;;;;;;;0.10;0.10;;;;;;;;;;5051404;28;20181;-58
2021/04/05 19:38:11;;;;;;;1.17;0.30;;;;;;;;;;5054197;28;20983;-58
2021/04/05 19:40:56;;;;;;;1.23;0.70;;;;;;;;;;5050845;28;20510;-59
2021/04/05 19:43:26;;;;;;;0.00;0.00;;;;;;;;;;5051064;28;20204;-58
2021/04/05 19:45:59;;;;;;;0.00;0.00;;;;;;;;;;5050898;28;20695;-58
2021/04/05 19:48:44;;;;;;;0.23;0.10;;;;;;;;;;5053216;28;20264;-57
2021/04/05 19:51:20;;;;;;;0.20;0.20;;;;;;;;;;5053528;28;20186;-57
2021/04/05 19:54:05;;;;;;;0.30;0.20;;;;;;;;;;5051627;28;20269;-58
2021/04/05 19:56:41;;;;;;;0.00;0.00;;;;;;;;;;5054107;28;20190;-59
2021/04/05 19:59:11;;;;;;;0.10;0.10;;;;;;;;;;5053480;28;20216;-58
2021/04/05 20:01:44;;;;;;;0.00;0.00;;;;;;;;;;5045858;28;20214;-58
2021/04/05 20:04:27;;;;;;;1.50;0.23;;;;;;;;;;5048490;28;20627;-57
2021/04/05 20:07:09;;;;;;;0.30;0.30;;;;;;;;;;5047812;28;20238;-58
2021/04/05 20:09:42;;;;;;;0.00;0.00;;;;;;;;;;5049522;28;20188;-59
2021/04/05 20:12:08;;;;;;;2.00;0.20;;;;;;;;;;5052543;28;20922;-55
2021/04/05 20:14:42;;;;;;;0.00;0.00;;;;;;;;;;5052217;28;20213;-57
2021/04/05 20:17:08;;;;;;;0.00;0.00;;;;;;;;;;5055586;28;20228;-58
2021/04/05 20:19:49;;;;;;;0.40;0.33;;;;;;;;;;5049386;28;20722;-57
2021/04/05 20:22:28;;;;;;;0.00;0.00;;;;;;;;;;5050671;28;20298;-58
2021/04/05 20:25:07;;;;;;;0.00;0.00;;;;;;;;;;5048390;28;20192;-60
2021/04/05 20:27:53;;;;;;;0.77;0.10;;;;;;;;;;5049508;28;20846;-61
2021/04/05 20:30:27;;;;;;;0.00;0.00;;;;;;;;;;5048173;28;20211;-58
2021/04/05 20:33:04;;;;;;;0.00;0.00;;;;;;;;;;5051825;28;20301;-58
2021/04/05 20:35:31;;;;;;;0.00;0.00;;;;;;;;;;5052103;28;20191;-59
2021/04/05 20:38:06;;;;;;;0.00;0.00;;;;;;;;;;5051867;28;20192;-59
2021/04/05 20:40:42;;;;;;;0.00;0.00;;;;;;;;;;5049966;28;20237;-58
2021/04/05 20:43:26;;;;;;;0.73;0.73;;;;;;;;;;5050067;28;20177;-58
2021/04/05 20:45:54;;;;;;;0.00;0.00;;;;;;;;;;5051513;28;20208;-58
2021/04/05 20:48:38;;;;;;;0.20;0.20;;;;;;;;;;5049699;28;20194;-59
2021/04/05 20:51:23;;;;;;;0.00;0.00;;;;;;;;;;5049878;28;20296;-59
2021/04/05 20:54:01;;;;;;;0.00;0.00;;;;;;;;;;5049596;28;20202;-58
2021/04/05 20:56:43;;;;;;;0.00;0.00;;;;;;;;;;5051017;28;20183;-58
2021/04/05 20:59:13;;;;;;;0.40;0.40;;;;;;;;;;5053035;28;20876;-59
2021/04/05 21:01:47;;;;;;;0.00;0.00;;;;;;;;;;5047918;28;20247;-58
2021/04/05 21:04:15;;;;;;;4.80;1.23;;;;;;;;;;5050220;28;20183;-57
2021/04/05 21:06:43;;;;;;;0.20;0.10;;;;;;;;;;5049575;28;20179;-58
2021/04/05 21:09:10;;;;;;;0.20;0.10;;;;;;;;;;5050426;28;20235;-59
2021/04/05 21:12:12;;;;;;;0.10;0.10;;;;;;;;;;5053569;28;20178;-58
2021/04/05 21:14:41;;;;;;;0.00;0.00;;;;;;;;;;5012168;28;20191;-57
2021/04/05 21:17:12;;;;;;;0.00;0.00;;;;;;;;;;5046802;28;20197;-57
2021/04/05 21:19:41;;;;;;;11.13;1.60;;;;;;;;;;5052993;28;20195;-59
2021/04/05 21:22:11;;;;;;;0.03;0.03;;;;;;;;;;5051911;28;20282;-57
2021/04/05 21:24:42;;;;;;;0.00;0.00;;;;;;;;;;5051577;28;20183;-58
2021/04/05 21:27:13;;;;;;;0.27;0.27;;;;;;;;;;5052983;28;20572;-56
2021/04/05 21:30:00;;;;;;;0.00;0.00;;;;;;;;;;5052518;28;20334;-57
2021/04/05 21:32:32;;;;;;;0.00;0.00;;;;;;;;;;5049293;28;20266;-59
2021/04/05 21:35:00;;;;;;;0.00;0.00;;;;;;;;;;5052029;28;20295;-55
2021/04/05 21:37:28;;;;;;;0.00;0.00;;;;;;;;;;5050312;28;20218;-57
2021/04/05 21:40:00;;;;;;;0.00;0.00;;;;;;;;;;5051018;28;20205;-56
2021/04/05 21:42:30;;;;;;;2.10;0.07;;;;;;;;;;5051643;28;20175;-56
2021/04/05 21:44:58;;;;;;;3.40;0.10;;;;;;;;;;5055175;28;20208;-52
2021/04/05 21:47:25;;;;;;;0.30;0.23;;;;;;;;;;5057446;28;20218;-56
2021/04/05 21:49:53;;;;;;;0.10;0.10;;;;;;;;;;5047289;28;20188;-55